Time;durP1;ratioP1;P1;durP2;ratioP2;P2;SDS_P1;SDS_P2;PMS_P1;PMS_P2;Temp;Humidity;BMP_temperature;BMP_pressure;BME280_temperature;BME280_humidity;BME280_pressure;Samples;Min_cycle;Max_cycle;Signal;HPM_P1;HPM_P2
2022/06/05 00:01:21;;;;;;;21.40;15.18;;;16.00;99.90;;;;;;5013368;28;20185;-71
2022/06/05 00:04:01;;;;;;;18.95;15.10;;;15.90;99.90;;;;;;5013140;28;20252;-71
2022/06/05 00:06:27;;;;;;;16.35;14.35;;;15.90;99.90;;;;;;5016100;28;20161;-70
2022/06/05 00:09:05;;;;;;;16.75;14.50;;;15.90;99.90;;;;;;5016820;28;20277;-70
2022/06/05 00:11:41;;;;;;;17.05;14.43;;;15.90;99.90;;;;;;5016709;28;20162;-71
2022/06/05 00:14:07;;;;;;;46.40;15.00;;;16.00;99.90;;;;;;5017016;28;20569;-70
2022/06/05 00:16:32;;;;;;;16.77;14.87;;;15.90;99.90;;;;;;5016652;28;20170;-70
2022/06/05 00:18:58;;;;;;;18.93;15.13;;;15.90;99.90;;;;;;5016733;28;20169;-70
2022/06/05 00:21:24;;;;;;;17.67;15.87;;;15.80;99.90;;;;;;5015649;28;20268;-70
2022/06/05 00:23:50;;;;;;;18.27;15.47;;;15.70;99.90;;;;;;5016810;28;20174;-69
2022/06/05 00:26:37;;;;;;;21.13;15.73;;;15.60;99.90;;;;;;5016413;28;20602;-71
2022/06/05 00:29:20;;;;;;;26.07;15.57;;;15.70;99.90;;;;;;5015912;28;20200;-71
2022/06/05 00:32:02;;;;;;;17.33;14.67;;;15.70;99.90;;;;;;5016411;28;20252;-71
2022/06/05 00:34:28;;;;;;;16.90;14.43;;;15.60;99.90;;;;;;5016392;28;20170;-71
2022/06/05 00:37:25;;;;;;;16.93;14.70;;;15.60;99.90;;;;;;5016217;28;20169;-70
2022/06/05 00:40:29;;;;;;;20.33;14.83;;;15.60;99.90;;;;;;5016238;28;20162;-70
2022/06/05 00:42:56;;;;;;;20.03;14.43;;;15.50;99.90;;;;;;4998283;28;20189;-70
2022/06/05 00:45:21;;;;;;;15.47;13.80;;;15.60;99.90;;;;;;5016793;28;20166;-70
2022/06/05 00:47:48;;;;;;;15.23;13.57;;;15.40;99.90;;;;;;5017033;28;20292;-73
2022/06/05 00:50:17;;;;;;;14.97;13.30;;;15.40;99.90;;;;;;5019321;28;20161;-71
2022/06/05 00:52:49;;;;;;;15.03;13.40;;;15.50;99.90;;;;;;5021707;28;20157;-72
2022/06/05 00:55:16;;;;;;;15.00;12.70;;;15.50;99.90;;;;;;5025674;28;20549;-71
2022/06/05 00:57:42;;;;;;;17.07;14.17;;;15.40;99.90;;;;;;5024567;28;20165;-69
2022/06/05 01:00:13;;;;;;;18.10;14.30;;;15.40;99.90;;;;;;5021569;28;20638;-71
2022/06/05 01:02:42;;;;;;;17.07;14.73;;;15.30;99.90;;;;;;5016317;28;20379;-71
2022/06/05 01:05:10;;;;;;;16.07;14.37;;;15.30;99.90;;;;;;5014921;28;20526;-70
2022/06/05 01:07:36;;;;;;;15.80;13.97;;;15.40;99.90;;;;;;5015582;28;20205;-70
2022/06/05 01:10:02;;;;;;;15.57;13.73;;;15.40;99.90;;;;;;5015580;28;20165;-69
2022/06/05 01:12:59;;;;;;;16.93;14.03;;;15.30;99.90;;;;;;5015258;28;20197;-71
2022/06/05 01:15:51;;;;;;;17.10;14.90;;;15.20;99.90;;;;;;5007768;28;20197;-70
2022/06/05 01:18:34;;;;;;;19.07;14.73;;;15.10;99.90;;;;;;5014758;28;20165;-70
2022/06/05 01:21:06;;;;;;;16.30;14.30;;;15.10;99.90;;;;;;5015831;28;20166;-71
2022/06/05 01:23:52;;;;;;;15.53;13.87;;;15.10;99.90;;;;;;5015546;28;20173;-70
2022/06/05 01:26:18;;;;;;;16.43;14.30;;;15.10;99.90;;;;;;5016046;28;20165;-71
2022/06/05 01:28:58;;;;;;;15.97;14.27;;;15.10;99.90;;;;;;5015135;28;20193;-71
2022/06/05 01:31:31;;;;;;;16.67;14.03;;;15.10;99.90;;;;;;5015464;28;20169;-71
2022/06/05 01:34:12;;;;;;;16.27;14.47;;;15.00;99.90;;;;;;5015166;28;20257;-70
2022/06/05 01:37:00;;;;;;;15.37;13.43;;;15.00;99.90;;;;;;5014395;28;20184;-70
2022/06/05 01:39:47;;;;;;;16.10;13.83;;;15.10;99.90;;;;;;5015194;28;20571;-70
2022/06/05 01:42:22;;;;;;;16.50;14.27;;;15.10;99.90;;;;;;5013585;28;20181;-71
2022/06/05 01:44:54;;;;;;;14.77;12.70;;;14.90;99.90;;;;;;5015281;28;20203;-70
2022/06/05 01:47:28;;;;;;;16.07;14.37;;;14.80;99.90;;;;;;5015353;28;20193;-70
2022/06/05 01:49:57;;;;;;;17.40;14.73;;;14.70;99.90;;;;;;5015148;28;20265;-70
2022/06/05 01:52:52;;;;;;;15.00;13.40;;;14.70;99.90;;;;;;5014869;28;20162;-70
2022/06/05 01:55:34;;;;;;;14.83;13.23;;;14.70;99.90;;;;;;5014073;28;20185;-71
2022/06/05 01:58:05;;;;;;;16.67;13.33;;;14.90;99.90;;;;;;5014652;28;20169;-70
2022/06/05 02:00:31;;;;;;;16.87;13.53;;;14.70;99.90;;;;;;5014629;28;20656;-69
2022/06/05 02:03:19;;;;;;;15.63;14.03;;;14.70;99.90;;;;;;5015456;28;20225;-69
2022/06/05 02:05:52;;;;;;;16.23;13.93;;;14.80;99.90;;;;;;5019701;28;20178;-69
2022/06/05 02:08:23;;;;;;;18.50;14.00;;;14.80;99.90;;;;;;5024422;28;20561;-71
2022/06/05 02:11:05;;;;;;;17.10;14.50;;;14.70;99.90;;;;;;5024975;28;20169;-70
2022/06/05 02:13:31;;;;;;;16.43;14.00;;;14.70;99.90;;;;;;5021407;28;20185;-72
2022/06/05 02:15:57;;;;;;;16.47;14.77;;;14.70;99.90;;;;;;5023506;28;20170;-71
2022/06/05 02:18:23;;;;;;;16.60;14.80;;;14.50;99.90;;;;;;5022946;28;20220;-72
2022/06/05 02:20:49;;;;;;;16.73;14.40;;;14.50;99.90;;;;;;5019157;28;20693;-71
2022/06/05 02:23:23;;;;;;;17.47;13.43;;;14.30;99.90;;;;;;5022920;28;20168;-71
2022/06/05 02:25:49;;;;;;;17.97;14.73;;;14.50;99.90;;;;;;5020128;28;20173;-71
2022/06/05 02:28:18;;;;;;;15.97;13.90;;;14.50;99.90;;;;;;5018164;28;20243;-69
2022/06/05 02:31:01;;;;;;;18.50;15.07;;;14.60;99.90;;;;;;5017536;28;20590;-69
2022/06/05 02:33:42;;;;;;;17.97;14.90;;;14.70;99.90;;;;;;5016141;28;20169;-71
2022/06/05 02:36:19;;;;;;;17.23;14.57;;;14.60;99.90;;;;;;5014094;28;20157;-70
2022/06/05 02:38:44;;;;;;;17.47;14.83;;;14.60;99.90;;;;;;5014196;28;20249;-70
2022/06/05 02:41:21;;;;;;;18.87;13.97;;;14.70;99.90;;;;;;5012950;28;20572;-71
2022/06/05 02:44:29;;;;;;;16.50;14.30;;;14.70;99.90;;;;;;5014081;28;20165;-72
2022/06/05 02:47:09;;;;;;;16.73;14.67;;;14.70;99.90;;;;;;5013749;28;20252;-71
2022/06/05 02:49:42;;;;;;;17.70;14.83;;;14.60;99.90;;;;;;5012803;28;20508;-70
2022/06/05 02:52:09;;;;;;;17.13;15.00;;;14.50;99.90;;;;;;5012984;28;20513;-70
2022/06/05 02:54:42;;;;;;;17.77;14.50;;;14.60;99.90;;;;;;5013343;28;20166;-71
2022/06/05 02:57:08;;;;;;;18.57;14.23;;;14.40;99.90;;;;;;5014272;28;20315;-71
2022/06/05 02:59:34;;;;;;;17.70;14.03;;;14.30;99.90;;;;;;5013752;28;20150;-70
2022/06/05 03:04:44;;;;;;;18.97;15.13;;;14.40;99.90;;;;;;5013306;28;20318;-69
2022/06/05 03:07:10;;;;;;;18.47;14.63;;;14.30;99.90;;;;;;5013522;28;20268;-71
2022/06/05 03:09:35;;;;;;;19.03;14.77;;;14.20;99.90;;;;;;5013921;28;20177;-72
2022/06/05 03:12:02;;;;;;;16.60;13.90;;;14.20;99.90;;;;;;5012894;28;20189;-70
2022/06/05 03:14:27;;;;;;;22.07;16.13;;;14.20;99.90;;;;;;5013429;28;20585;-72
2022/06/05 03:16:53;;;;;;;17.20;14.80;;;14.20;99.90;;;;;;5013076;28;20249;-71
2022/06/05 03:19:19;;;;;;;18.43;13.93;;;14.20;99.90;;;;;;5014225;28;20166;-71
2022/06/05 03:21:45;;;;;;;21.63;13.83;;;14.20;99.90;;;;;;5013875;28;20165;-72
2022/06/05 03:24:11;;;;;;;17.67;14.00;;;14.20;99.90;;;;;;5013814;28;20220;-72
2022/06/05 03:26:36;;;;;;;17.33;14.33;;;14.20;99.90;;;;;;5013369;28;20168;-70
2022/06/05 03:29:03;;;;;;;16.37;14.30;;;14.40;99.90;;;;;;5013639;28;20197;-69
2022/06/05 03:31:29;;;;;;;15.87;14.20;;;14.30;99.90;;;;;;5013611;28;20644;-70
2022/06/05 03:33:55;;;;;;;15.83;14.10;;;14.30;99.90;;;;;;5013711;28;20170;-69
2022/06/05 03:36:21;;;;;;;17.87;14.67;;;14.30;99.90;;;;;;5013644;28;20288;-70
2022/06/05 03:38:47;;;;;;;16.63;14.60;;;14.20;99.90;;;;;;5012987;28;20257;-70
2022/06/05 03:41:17;;;;;;;21.93;14.87;;;14.20;99.90;;;;;;5016097;28;20173;-70
2022/06/05 03:43:43;;;;;;;17.57;14.67;;;14.30;99.90;;;;;;5017689;28;20166;-70
2022/06/05 03:46:12;;;;;;;16.20;13.70;;;14.30;99.90;;;;;;5016274;28;20193;-70
2022/06/05 03:48:39;;;;;;;15.97;14.27;;;14.30;99.90;;;;;;5023854;28;20201;-73
2022/06/05 03:51:07;;;;;;;20.13;14.80;;;14.20;99.90;;;;;;5025278;28;20176;-70
2022/06/05 03:53:32;;;;;;;20.27;15.10;;;14.30;99.90;;;;;;5025062;28;20174;-71
2022/06/05 03:55:58;;;;;;;17.63;13.67;;;14.30;99.90;;;;;;5024503;28;20224;-71
2022/06/05 03:58:23;;;;;;;20.80;14.17;;;14.00;99.90;;;;;;5018923;28;20181;-70
2022/06/05 04:00:51;;;;;;;17.10;14.00;;;13.90;99.90;;;;;;5017750;28;20177;-70
2022/06/05 04:03:17;;;;;;;17.73;14.17;;;13.90;99.90;;;;;;5016511;28;20320;-70
2022/06/05 04:05:44;;;;;;;20.00;14.13;;;14.10;99.90;;;;;;5016721;28;20256;-70
2022/06/05 04:08:10;;;;;;;16.80;14.43;;;14.10;99.90;;;;;;5016263;28;20534;-70
2022/06/05 04:10:37;;;;;;;17.37;14.17;;;14.10;99.90;;;;;;5016760;28;20253;-70
2022/06/05 04:13:02;;;;;;;17.47;14.37;;;14.10;99.90;;;;;;5016358;28;20157;-70
2022/06/05 04:15:28;;;;;;;17.47;14.63;;;14.20;99.90;;;;;;5016766;28;20567;-70
2022/06/05 04:17:53;;;;;;;20.77;14.90;;;14.20;99.90;;;;;;5016905;28;20169;-69
2022/06/05 04:20:19;;;;;;;20.37;15.63;;;14.10;99.90;;;;;;5016615;28;20177;-70
2022/06/05 04:22:45;;;;;;;17.00;15.20;;;14.00;99.90;;;;;;5016212;28;20169;-70
2022/06/05 04:25:14;;;;;;;18.93;15.33;;;14.10;99.90;;;;;;5016971;28;20224;-70
2022/06/05 04:27:40;;;;;;;18.30;15.43;;;14.00;99.90;;;;;;5016530;28;20640;-71
2022/06/05 04:30:06;;;;;;;18.90;15.80;;;14.00;99.90;;;;;;5015229;28;20496;-69
2022/06/05 04:32:31;;;;;;;19.73;15.80;;;14.10;99.90;;;;;;5016124;28;20605;-69
2022/06/05 04:34:57;;;;;;;17.77;14.27;;;14.10;99.90;;;;;;5015834;28;20198;-69
2022/06/05 04:37:22;;;;;;;18.80;15.63;;;14.10;99.90;;;;;;5016437;28;20237;-69
2022/06/05 04:39:48;;;;;;;18.80;15.57;;;14.20;99.90;;;;;;5015985;28;20242;-71
2022/06/05 04:42:14;;;;;;;21.73;14.60;;;14.30;99.90;;;;;;5015999;28;20180;-70
2022/06/05 04:44:40;;;;;;;17.63;14.87;;;14.30;99.90;;;;;;5018465;28;20166;-70
2022/06/05 04:47:05;;;;;;;17.50;15.00;;;14.40;99.90;;;;;;5016322;28;20158;-68
2022/06/05 04:49:31;;;;;;;17.50;15.53;;;14.50;99.90;;;;;;5015954;28;20179;-70
2022/06/05 04:51:56;;;;;;;18.03;14.07;;;14.50;99.90;;;;;;5014259;28;20203;-70
2022/06/05 04:54:22;;;;;;;16.40;13.97;;;14.50;99.90;;;;;;5015977;28;20173;-69
2022/06/05 04:56:47;;;;;;;16.57;14.80;;;14.70;99.90;;;;;;5015972;28;20158;-70
2022/06/05 04:59:13;;;;;;;15.07;13.47;;;14.70;99.90;;;;;;5015522;28;20577;-71
2022/06/05 05:01:40;;;;;;;14.60;13.10;;;14.90;99.90;;;;;;5016296;28;20181;-70
2022/06/05 05:04:08;;;;;;;14.80;13.20;;;15.00;99.90;;;;;;5015796;28;20272;-71
2022/06/05 05:06:35;;;;;;;15.10;13.23;;;15.00;99.90;;;;;;5015609;28;20165;-70
2022/06/05 05:09:01;;;;;;;16.47;14.40;;;15.10;99.90;;;;;;5015552;28;20327;-69
2022/06/05 05:11:27;;;;;;;16.07;13.90;;;15.00;99.90;;;;;;5015727;28;20200;-71
2022/06/05 05:13:54;;;;;;;16.50;14.03;;;15.00;99.90;;;;;;5015437;28;20231;-70
2022/06/05 05:16:20;;;;;;;16.70;14.07;;;15.10;99.90;;;;;;5015350;28;20252;-70
2022/06/05 05:18:45;;;;;;;14.93;13.27;;;15.20;99.90;;;;;;5015946;28;20166;-69
2022/06/05 05:21:17;;;;;;;17.47;13.67;;;15.20;99.90;;;;;;5015766;28;20510;-69
2022/06/05 05:23:44;;;;;;;15.23;13.40;;;15.30;99.90;;;;;;5015035;28;20158;-69
2022/06/05 05:26:12;;;;;;;16.23;14.00;;;15.40;99.90;;;;;;5015659;28;20255;-69
2022/06/05 05:28:39;;;;;;;16.20;14.47;;;15.40;99.90;;;;;;5013985;28;20211;-71
2022/06/05 05:31:10;;;;;;;20.03;13.80;;;15.50;99.90;;;;;;5015257;28;20169;-69
2022/06/05 05:33:37;;;;;;;14.70;12.60;;;15.50;99.90;;;;;;5014280;28;20500;-69
2022/06/05 05:36:03;;;;;;;17.93;14.50;;;15.50;99.90;;;;;;5019050;28;20165;-69
2022/06/05 05:38:29;;;;;;;14.67;13.10;;;15.70;99.90;;;;;;5015281;28;20181;-70
2022/06/05 05:43:39;;;;;;;16.07;13.60;;;15.90;99.90;;;;;;5016677;28;20164;-69
2022/06/05 05:46:11;;;;;;;17.50;14.87;;;15.90;99.90;;;;;;5014614;28;20162;-69
2022/06/05 05:48:38;;;;;;;15.57;13.85;;;16.00;99.90;;;;;;5016103;28;20219;-70
2022/06/05 05:51:14;;;;;;;17.10;13.97;;;16.20;99.90;;;;;;5014956;28;20173;-70
2022/06/05 05:53:41;;;;;;;15.13;12.75;;;16.20;99.90;;;;;;5014614;28;20192;-71
2022/06/05 05:56:10;;;;;;;15.80;13.77;;;16.30;99.90;;;;;;5015399;28;20168;-72
2022/06/05 05:58:39;;;;;;;15.38;13.77;;;16.30;99.90;;;;;;5016072;28;20186;-70
2022/06/05 06:01:07;;;;;;;17.80;14.07;;;16.40;99.90;;;;;;5014597;28;20239;-69
2022/06/05 06:03:34;;;;;;;17.63;15.13;;;16.50;99.90;;;;;;5014844;28;20232;-69
2022/06/05 06:06:01;;;;;;;16.00;14.40;;;16.60;99.90;;;;;;5014615;28;20267;-70
2022/06/05 06:08:27;;;;;;;17.38;14.73;;;16.50;99.90;;;;;;5014304;28;20193;-70
2022/06/05 06:10:54;;;;;;;16.60;14.75;;;16.70;99.90;;;;;;5014252;28;20252;-69
2022/06/05 06:13:20;;;;;;;18.48;14.45;;;16.80;99.90;;;;;;5014403;28;20178;-70
2022/06/05 06:15:45;;;;;;;17.83;14.38;;;16.70;99.90;;;;;;5013883;28;20169;-69
2022/06/05 06:18:11;;;;;;;16.45;14.38;;;16.80;99.90;;;;;;5014330;28;20169;-69
2022/06/05 06:20:37;;;;;;;16.90;14.35;;;17.00;99.90;;;;;;5014086;28;20165;-69
2022/06/05 06:23:02;;;;;;;17.83;13.70;;;17.00;99.90;;;;;;5013489;28;20185;-70
2022/06/05 06:25:28;;;;;;;17.08;13.00;;;17.20;99.90;;;;;;5014744;28;20162;-70
2022/06/05 06:27:54;;;;;;;16.08;14.20;;;17.30;99.90;;;;;;5014708;28;20197;-70
2022/06/05 06:30:20;;;;;;;16.92;13.85;;;17.40;99.90;;;;;;5021812;28;20173;-70
2022/06/05 06:32:45;;;;;;;16.35;14.02;;;17.70;99.90;;;;;;5023191;28;20176;-71
2022/06/05 06:35:11;;;;;;;15.38;13.50;;;17.70;99.90;;;;;;5021572;28;20165;-69
2022/06/05 06:37:37;;;;;;;16.65;13.32;;;17.70;99.90;;;;;;5021364;28;20249;-71
2022/06/05 06:40:03;;;;;;;15.40;13.32;;;17.80;99.90;;;;;;5022015;28;20185;-69
2022/06/05 06:42:29;;;;;;;14.18;12.77;;;18.00;99.90;;;;;;5021748;28;20528;-70
2022/06/05 06:44:56;;;;;;;15.90;12.23;;;18.10;99.90;;;;;;5013812;28;20162;-69
2022/06/05 06:47:21;;;;;;;14.07;12.68;;;18.30;99.90;;;;;;5013564;28;20198;-69
2022/06/05 06:49:47;;;;;;;14.05;12.55;;;18.30;99.90;;;;;;5014007;28;20223;-70
2022/06/05 06:52:12;;;;;;;14.57;13.05;;;18.40;99.90;;;;;;5013326;28;20172;-70
2022/06/05 06:54:38;;;;;;;14.52;13.02;;;18.60;99.90;;;;;;5013589;28;20248;-70
2022/06/05 06:57:04;;;;;;;13.73;12.20;;;18.80;99.90;;;;;;5013330;28;20220;-69
2022/06/05 06:59:30;;;;;;;13.13;11.88;;;18.90;99.90;;;;;;5013578;28;20169;-70
2022/06/05 07:01:56;;;;;;;14.10;12.70;;;19.00;99.90;;;;;;5013400;28;20181;-70
2022/06/05 07:04:21;;;;;;;12.50;11.25;;;19.20;99.90;;;;;;5013658;28;20201;-71
2022/06/05 07:06:48;;;;;;;13.45;11.70;;;19.40;99.90;;;;;;5013651;28;20180;-70
2022/06/05 07:09:14;;;;;;;13.02;11.73;;;19.50;99.90;;;;;;5012882;28;20198;-69
2022/06/05 07:11:41;;;;;;;12.40;11.00;;;19.40;99.90;;;;;;5013344;28;20178;-70
2022/06/05 07:14:07;;;;;;;14.93;11.10;;;19.80;99.90;;;;;;5013246;28;20162;-71
2022/06/05 07:16:33;;;;;;;12.85;11.52;;;20.20;99.90;;;;;;5016071;28;20637;-70
2022/06/05 07:18:58;;;;;;;11.60;10.45;;;20.30;99.90;;;;;;5016328;28;20188;-71
2022/06/05 07:21:25;;;;;;;10.48;9.45;;;20.30;99.90;;;;;;5016737;28;20165;-70
2022/06/05 07:23:51;;;;;;;9.60;8.38;;;20.60;99.90;;;;;;5016792;28;20192;-70
2022/06/05 07:26:19;;;;;;;11.95;10.63;;;20.80;99.90;;;;;;5017105;28;20580;-69
2022/06/05 07:28:45;;;;;;;9.70;8.70;;;21.20;99.90;;;;;;5017130;28;20193;-70
2022/06/05 07:31:13;;;;;;;8.30;7.50;;;21.40;99.90;;;;;;5016609;28;20188;-70
2022/06/05 07:33:41;;;;;;;8.10;7.30;;;21.50;99.90;;;;;;5017489;28;20168;-70
2022/06/05 07:36:10;;;;;;;8.88;7.05;;;21.60;99.90;;;;;;5017061;28;20224;-70
2022/06/05 07:38:37;;;;;;;7.43;6.72;;;21.80;99.90;;;;;;5017243;28;20174;-71
2022/06/05 07:41:04;;;;;;;8.15;7.35;;;21.80;99.90;;;;;;5016597;28;20239;-70
2022/06/05 07:43:30;;;;;;;7.30;6.60;;;22.00;99.90;;;;;;5017115;28;20162;-70
2022/06/05 07:45:57;;;;;;;7.50;6.80;;;22.10;99.90;;;;;;5016678;28;20256;-69
2022/06/05 07:48:22;;;;;;;6.95;6.25;;;22.30;99.90;;;;;;5016503;28;20193;-69
2022/06/05 07:56:27;;;;;;;5.40;4.90;;;22.70;99.90;;;;;;5015856;28;20173;-69
2022/06/05 07:58:52;;;;;;;5.05;4.60;;;22.80;99.90;;;;;;5016305;28;20543;-71
2022/06/05 08:01:18;;;;;;;7.30;4.88;;;22.90;99.90;;;;;;5016681;28;20188;-70
2022/06/05 08:03:44;;;;;;;5.72;5.18;;;23.30;99.90;;;;;;5016417;28;20225;-71
2022/06/05 08:06:10;;;;;;;5.75;4.97;;;23.20;99.90;;;;;;5016543;28;20189;-71
2022/06/05 08:08:35;;;;;;;5.70;4.90;;;23.20;99.90;;;;;;5015919;28;20200;-70
2022/06/05 08:11:05;;;;;;;4.95;4.32;;;23.20;99.90;;;;;;5015464;28;20191;-68
2022/06/05 08:13:31;;;;;;;7.03;4.53;;;23.10;99.90;;;;;;5015997;28;20181;-70
2022/06/05 08:15:57;;;;;;;5.43;4.32;;;23.40;99.90;;;;;;5016591;28;20670;-71
2022/06/05 08:18:22;;;;;;;5.25;4.75;;;23.50;99.90;;;;;;5016720;28;20246;-71
2022/06/05 08:20:49;;;;;;;7.03;4.32;;;23.50;99.90;;;;;;5015826;28;20185;-72
2022/06/05 08:23:15;;;;;;;4.97;4.47;;;23.70;99.90;;;;;;5015461;28;20178;-71
2022/06/05 08:25:40;;;;;;;5.10;4.60;;;23.70;99.90;;;;;;5014833;28;20169;-70
2022/06/05 08:28:08;;;;;;;4.78;4.38;;;24.00;99.90;;;;;;5015529;28;20617;-71
2022/06/05 08:30:34;;;;;;;7.20;4.63;;;24.20;99.90;;;;;;5015436;28;20165;-70
2022/06/05 08:33:00;;;;;;;4.85;4.35;;;24.20;99.90;;;;;;5015601;28;20223;-71
2022/06/05 08:35:26;;;;;;;4.68;4.28;;;24.00;99.90;;;;;;5015614;28;20173;-70
2022/06/05 08:43:42;;;;;;;4.93;4.03;;;24.20;99.90;;;;;;5018547;28;20257;-72
2022/06/05 08:46:23;;;;;;;4.70;4.30;;;24.30;99.90;;;;;;5022066;28;20204;-72
2022/06/05 08:48:56;;;;;;;4.85;4.20;;;24.30;99.90;;;;;;5021442;28;20193;-71
2022/06/05 08:51:26;;;;;;;6.45;5.30;;;24.40;99.90;;;;;;5020065;28;20237;-71
2022/06/05 08:54:04;;;;;;;5.10;4.60;;;24.50;99.90;;;;;;5020686;28;20232;-70
2022/06/05 08:56:32;;;;;;;4.47;4.07;;;24.40;99.90;;;;;;5021764;28;20248;-71
2022/06/05 08:59:16;;;;;;;4.60;4.05;;;24.50;99.90;;;;;;5023049;28;20184;-71
2022/06/05 09:01:48;;;;;;;5.10;4.68;;;24.70;99.90;;;;;;5023416;28;20185;-75
2022/06/05 09:04:20;;;;;;;4.90;4.35;;;24.70;99.90;;;;;;5027734;28;20169;-70
2022/06/05 09:06:52;;;;;;;4.82;4.40;;;24.70;99.90;;;;;;5029598;28;20217;-70
2022/06/05 09:09:23;;;;;;;5.20;4.70;;;24.80;99.90;;;;;;5030952;28;20292;-71
2022/06/05 09:11:58;;;;;;;6.47;4.65;;;25.00;99.90;;;;;;5029359;28;20243;-70
2022/06/05 09:14:38;;;;;;;6.30;4.60;;;25.10;99.90;;;;;;5025862;28;20530;-70
2022/06/05 09:17:11;;;;;;;5.07;4.57;;;25.10;99.90;;;;;;5014874;28;20228;-72
2022/06/05 09:19:37;;;;;;;5.18;4.07;;;25.10;99.90;;;;;;5014541;28;20200;-71
2022/06/05 09:22:27;;;;;;;5.18;4.68;;;25.10;99.90;;;;;;5013176;28;20182;-70
2022/06/05 09:25:01;;;;;;;7.20;5.32;;;25.30;99.90;;;;;;5014343;28;20276;-71
2022/06/05 09:27:45;;;;;;;4.95;4.55;;;25.60;99.90;;;;;;5012943;28;20263;-71
2022/06/05 09:30:28;;;;;;;7.80;4.60;;;25.60;99.90;;;;;;5014077;28;20172;-69
2022/06/05 09:33:25;;;;;;;5.18;4.68;;;25.30;99.90;;;;;;5014246;28;20197;-70
2022/06/05 09:36:00;;;;;;;4.63;4.15;;;25.60;99.90;;;;;;5014200;28;20301;-70
2022/06/05 09:38:36;;;;;;;4.53;4.13;;;25.30;99.90;;;;;;5012836;28;20188;-70
2022/06/05 09:41:12;;;;;;;4.78;4.35;;;25.60;99.90;;;;;;5013918;28;20594;-70
2022/06/05 09:43:40;;;;;;;5.55;4.75;;;25.60;99.90;;;;;;5014144;28;20215;-72
2022/06/05 09:46:24;;;;;;;5.35;4.50;;;25.90;99.90;;;;;;5014041;28;20236;-72
2022/06/05 09:49:04;;;;;;;4.85;4.45;;;26.10;99.90;;;;;;5012668;28;20204;-70
2022/06/05 09:51:29;;;;;;;5.78;4.57;;;26.50;99.90;;;;;;5014177;28;20547;-70
2022/06/05 09:54:05;;;;;;;4.28;3.88;;;26.70;99.90;;;;;;5013553;28;20162;-70
2022/06/05 09:59:55;;;;;;;4.47;4.05;;;26.50;99.90;;;;;;5013420;28;20251;-71
2022/06/05 10:02:22;;;;;;;4.57;4.10;;;26.40;99.90;;;;;;5013139;28;20224;-71
2022/06/05 10:04:50;;;;;;;4.68;4.10;;;26.40;99.50;;;;;;5013572;28;20256;-71
2022/06/05 10:07:28;;;;;;;4.70;4.30;;;26.60;98.70;;;;;;5013462;28;20169;-72
2022/06/05 10:09:54;;;;;;;4.15;3.85;;;26.50;98.00;;;;;;5014028;28;20235;-71
2022/06/05 10:12:35;;;;;;;4.70;4.18;;;26.60;98.70;;;;;;5013753;28;20162;-71
2022/06/05 10:15:10;;;;;;;4.22;3.83;;;26.80;97.90;;;;;;5014266;28;20176;-72
2022/06/05 10:18:03;;;;;;;4.00;3.60;;;26.80;95.60;;;;;;5012738;28;20567;-71
2022/06/05 10:20:39;;;;;;;4.38;3.97;;;26.70;95.10;;;;;;5013623;28;20169;-72
2022/06/05 10:23:22;;;;;;;5.10;4.38;;;27.10;95.90;;;;;;5013965;28;20157;-72
2022/06/05 10:26:11;;;;;;;4.32;4.03;;;27.20;93.20;;;;;;5013836;28;20166;-71
2022/06/05 10:28:40;;;;;;;9.27;4.10;;;26.90;91.40;;;;;;5014337;28;20208;-72
2022/06/05 10:31:28;;;;;;;4.32;3.92;;;27.20;92.50;;;;;;5014341;28;20180;-72
2022/06/05 10:34:22;;;;;;;5.55;5.00;;;27.20;91.00;;;;;;5013342;28;20219;-72
2022/06/05 10:37:08;;;;;;;5.13;4.68;;;27.40;88.50;;;;;;5013388;28;20170;-72
2022/06/05 10:39:51;;;;;;;3.97;3.67;;;27.00;84.70;;;;;;5007920;28;20280;-71
2022/06/05 10:42:47;;;;;;;5.03;4.18;;;26.90;88.50;;;;;;5013399;28;20191;-73
2022/06/05 10:45:21;;;;;;;5.32;4.28;;;27.00;85.40;;;;;;5013287;28;20679;-73
2022/06/05 10:47:55;;;;;;;4.22;3.83;;;27.10;83.50;;;;;;5013059;28;20545;-72
2022/06/05 10:50:48;;;;;;;4.80;3.92;;;27.40;83.20;;;;;;5013455;28;20172;-72
2022/06/05 10:53:28;;;;;;;3.72;3.42;;;27.60;80.10;;;;;;5010998;28;20201;-71
2022/06/05 10:56:17;;;;;;;4.20;3.80;;;27.00;74.80;;;;;;5013595;28;20164;-71
2022/06/05 10:58:47;;;;;;;6.57;4.57;;;27.10;75.50;;;;;;5013548;28;20158;-73
2022/06/05 11:01:13;;;;;;;4.47;3.92;;;27.40;71.90;;;;;;5014229;28;20192;-74
2022/06/05 11:04:10;;;;;;;5.15;4.20;;;27.30;71.40;;;;;;5017418;28;20229;-74
2022/06/05 11:06:47;;;;;;;3.97;3.67;;;27.50;73.50;;;;;;5013445;28;20161;-71
2022/06/05 11:09:37;;;;;;;4.30;3.90;;;27.80;74.40;;;;;;5012179;28;20637;-72
2022/06/05 11:15:39;;;;;;;4.00;3.60;;;27.90;72.70;;;;;;5012994;28;20223;-73
2022/06/05 11:18:21;;;;;;;12.00;8.57;;;27.80;72.00;;;;;;5013332;28;20170;-72
2022/06/05 11:20:58;;;;;;;5.60;5.10;;;28.20;72.70;;;;;;5013357;28;20174;-73
2022/06/05 11:23:35;;;;;;;4.03;3.65;;;28.30;69.70;;;;;;5013483;28;20176;-72
2022/06/05 11:26:21;;;;;;;4.30;3.95;;;27.90;68.90;;;;;;5012988;28;20166;-72
2022/06/05 11:29:10;;;;;;;4.43;4.03;;;28.10;70.50;;;;;;5012659;28;20238;-74
2022/06/05 11:31:51;;;;;;;4.32;3.92;;;27.80;68.60;;;;;;5013239;28;20224;-73
2022/06/05 11:34:50;;;;;;;4.18;3.80;;;28.10;68.10;;;;;;5012566;28;20520;-73
2022/06/05 11:37:41;;;;;;;4.65;3.50;;;28.30;67.80;;;;;;5011673;28;20292;-72
2022/06/05 11:40:34;;;;;;;4.80;4.25;;;28.30;68.70;;;;;;5012419;28;20240;-72
2022/06/05 11:43:08;;;;;;;4.40;3.88;;;28.20;67.20;;;;;;5013355;28;20535;-72
2022/06/05 11:45:52;;;;;;;7.63;3.50;;;28.10;68.00;;;;;;5012694;28;20161;-72
2022/06/05 11:48:43;;;;;;;4.95;3.70;;;27.80;67.30;;;;;;5012761;28;20260;-72
2022/06/05 11:51:30;;;;;;;4.03;3.60;;;27.90;66.60;;;;;;5012898;28;20165;-73
2022/06/05 11:54:18;;;;;;;4.45;3.95;;;28.00;67.80;;;;;;5013416;28;20165;-73
2022/06/05 11:56:46;;;;;;;4.32;3.90;;;27.70;67.50;;;;;;5013005;28;20169;-73
2022/06/05 11:59:45;;;;;;;4.20;3.80;;;27.70;67.80;;;;;;5013090;28;20188;-73
2022/06/05 12:02:42;;;;;;;7.57;4.22;;;27.90;70.00;;;;;;5014524;28;20271;-73
2022/06/05 12:05:18;;;;;;;3.65;3.35;;;27.60;72.20;;;;;;5016866;28;20208;-73
2022/06/05 12:07:47;;;;;;;3.83;3.53;;;27.20;70.90;;;;;;5015000;28;20204;-72
2022/06/05 12:10:28;;;;;;;3.72;3.38;;;27.30;74.10;;;;;;5016499;28;20220;-73
2022/06/05 12:13:31;;;;;;;3.92;3.63;;;27.40;73.00;;;;;;5016531;28;20164;-73
2022/06/05 12:16:01;;;;;;;7.43;6.63;;;27.30;69.90;;;;;;5016559;28;20170;-74
2022/06/05 12:18:32;;;;;;;4.15;3.67;;;27.30;71.30;;;;;;5016449;28;20161;-73
2022/06/05 12:21:06;;;;;;;7.45;4.18;;;27.40;71.30;;;;;;5015953;28;20183;-72
2022/06/05 12:23:37;;;;;;;4.32;3.92;;;27.20;71.10;;;;;;5014664;28;20609;-72
2022/06/05 12:26:14;;;;;;;5.93;4.38;;;26.80;73.30;;;;;;5015494;28;20559;-71
2022/06/05 12:28:58;;;;;;;4.97;4.50;;;26.90;75.70;;;;;;5015718;28;20192;-72
2022/06/05 12:31:28;;;;;;;6.53;5.82;;;26.90;75.60;;;;;;5016481;28;20174;-72
2022/06/05 12:34:00;;;;;;;4.82;3.88;;;27.00;77.40;;;;;;5016210;28;20184;-73
2022/06/05 12:36:40;;;;;;;5.13;4.63;;;27.20;73.50;;;;;;5015170;28;20170;-71
2022/06/05 12:39:13;;;;;;;5.97;5.38;;;27.20;73.30;;;;;;5016133;28;20166;-72
2022/06/05 12:42:08;;;;;;;4.38;3.97;;;27.50;74.00;;;;;;5015842;28;20637;-72
2022/06/05 12:44:44;;;;;;;7.85;6.78;;;28.10;71.30;;;;;;5015555;28;20527;-73
2022/06/05 12:47:13;;;;;;;9.95;8.63;;;28.60;69.30;;;;;;5016082;28;20659;-72
2022/06/05 12:49:54;;;;;;;3.55;3.25;;;28.80;65.20;;;;;;5016396;28;20166;-71
2022/06/05 12:52:41;;;;;;;11.57;10.10;;;28.90;62.00;;;;;;5016207;28;20507;-72
2022/06/05 12:55:09;;;;;;;14.93;10.93;;;29.10;62.70;;;;;;5016339;28;20522;-72
2022/06/05 12:58:05;;;;;;;4.38;3.92;;;28.70;62.80;;;;;;5015800;28;20597;-73
2022/06/05 13:01:02;;;;;;;4.55;3.75;;;27.80;64.20;;;;;;5016458;28;20304;-72
2022/06/05 13:04:01;;;;;;;4.45;4.05;;;28.20;62.80;;;;;;5016603;28;20244;-72
2022/06/05 13:06:51;;;;;;;13.73;8.32;;;28.30;62.10;;;;;;5023090;28;20169;-72
2022/06/05 13:09:32;;;;;;;4.80;4.25;;;28.30;63.10;;;;;;5024120;28;20542;-73
2022/06/05 13:12:10;;;;;;;4.03;3.58;;;28.70;61.30;;;;;;5020748;28;20189;-73
2022/06/05 13:14:40;;;;;;;3.47;3.17;;;28.70;59.30;;;;;;5021072;28;20185;-72
2022/06/05 13:17:17;;;;;;;6.22;3.58;;;28.40;58.10;;;;;;5016418;28;20249;-71
2022/06/05 13:19:56;;;;;;;3.60;3.30;;;28.20;58.50;;;;;;5015991;28;20174;-73
2022/06/05 13:22:48;;;;;;;3.63;3.22;;;28.50;58.00;;;;;;5015701;28;20166;-73
2022/06/05 13:25:18;;;;;;;3.42;3.13;;;28.70;59.40;;;;;;5013823;28;20231;-71
2022/06/05 13:28:22;;;;;;;4.00;3.40;;;28.60;58.10;;;;;;5014228;28;20201;-72